sensor_id;sensor_type;location;lat;lon;timestamp;pressure;altitude;pressure_sealevel;temperature;humidity
17230;BME280;8731;50.364;8.958;2022-08-23T00:02:42;99944.22;;;22.72;47.21
17230;BME280;8731;50.364;8.958;2022-08-23T00:07:06;99946.13;;;22.97;44.44
17230;BME280;8731;50.364;8.958;2022-08-23T00:11:32;99956.03;;;23.07;44.13
17230;BME280;8731;50.364;8.958;2022-08-23T00:15:59;99949.94;;;23.07;45.30
17230;BME280;8731;50.364;8.958;2022-08-23T00:20:21;99950.69;;;22.82;46.89
17230;BME280;8731;50.364;8.958;2022-08-23T00:24:44;99942.81;;;23.01;46.09
17230;BME280;8731;50.364;8.958;2022-08-23T00:29:06;99939.09;;;22.74;46.04
17230;BME280;8731;50.364;8.958;2022-08-23T00:33:29;99936.59;;;22.77;46.31
17230;BME280;8731;50.364;8.958;2022-08-23T00:37:52;99938.19;;;22.73;47.20
17230;BME280;8731;50.364;8.958;2022-08-23T00:42:30;99926.09;;;22.74;47.40
17230;BME280;8731;50.364;8.958;2022-08-23T00:47:15;99924.13;;;22.68;47.10
17230;BME280;8731;50.364;8.958;2022-08-23T00:52:00;99930.97;;;22.66;46.86
17230;BME280;8731;50.364;8.958;2022-08-23T00:56:30;99924.94;;;22.67;46.80
17230;BME280;8731;50.364;8.958;2022-08-23T01:00:57;99925.00;;;22.68;46.33
17230;BME280;8731;50.364;8.958;2022-08-23T01:05:24;99930.84;;;22.63;46.60
17230;BME280;8731;50.364;8.958;2022-08-23T01:09:54;99942.44;;;22.50;47.04
17230;BME280;8731;50.364;8.958;2022-08-23T01:14:23;99941.50;;;22.48;47.28
17230;BME280;8731;50.364;8.958;2022-08-23T01:18:50;99943.81;;;22.42;47.28
17230;BME280;8731;50.364;8.958;2022-08-23T01:23:28;99942.75;;;22.37;47.22
17230;BME280;8731;50.364;8.958;2022-08-23T01:27:56;99938.06;;;22.28;46.77
17230;BME280;8731;50.364;8.958;2022-08-23T01:32:19;99944.69;;;22.22;47.23
17230;BME280;8731;50.364;8.958;2022-08-23T01:36:42;99948.75;;;22.15;47.83
17230;BME280;8731;50.364;8.958;2022-08-23T01:41:07;99950.00;;;22.04;48.69
17230;BME280;8731;50.364;8.958;2022-08-23T01:45:31;99939.47;;;22.01;48.25
17230;BME280;8731;50.364;8.958;2022-08-23T01:49:54;99943.53;;;21.96;47.68
17230;BME280;8731;50.364;8.958;2022-08-23T01:54:16;99942.97;;;21.82;48.24
17230;BME280;8731;50.364;8.958;2022-08-23T01:58:42;99938.72;;;21.84;48.34
17230;BME280;8731;50.364;8.958;2022-08-23T02:03:06;99939.28;;;21.77;48.03
17230;BME280;8731;50.364;8.958;2022-08-23T02:16:22;99946.16;;;21.57;50.21
17230;BME280;8731;50.364;8.958;2022-08-23T02:20:47;99946.75;;;21.52;50.04
17230;BME280;8731;50.364;8.958;2022-08-23T02:25:10;99945.53;;;21.43;50.70
17230;BME280;8731;50.364;8.958;2022-08-23T02:29:33;99941.84;;;21.38;50.04
17230;BME280;8731;50.364;8.958;2022-08-23T02:33:59;99945.06;;;21.33;50.68
17230;BME280;8731;50.364;8.958;2022-08-23T02:38:24;99956.22;;;21.14;52.38
17230;BME280;8731;50.364;8.958;2022-08-23T02:42:46;99938.50;;;21.23;50.44
17230;BME280;8731;50.364;8.958;2022-08-23T02:47:10;99946.00;;;21.17;50.87
17230;BME280;8731;50.364;8.958;2022-08-23T02:51:40;99948.81;;;21.04;51.69
17230;BME280;8731;50.364;8.958;2022-08-23T02:56:02;99952.22;;;21.03;51.45
17230;BME280;8731;50.364;8.958;2022-08-23T03:00:25;99956.50;;;21.02;51.21
17230;BME280;8731;50.364;8.958;2022-08-23T03:04:48;99946.84;;;20.98;51.33
17230;BME280;8731;50.364;8.958;2022-08-23T03:09:12;99949.28;;;20.95;51.33
17230;BME280;8731;50.364;8.958;2022-08-23T03:13:35;99956.91;;;20.74;52.47
17230;BME280;8731;50.364;8.958;2022-08-23T03:17:58;99957.56;;;20.70;52.54
17230;BME280;8731;50.364;8.958;2022-08-23T03:22:20;99956.81;;;20.73;52.65
17230;BME280;8731;50.364;8.958;2022-08-23T03:26:44;99962.88;;;20.73;51.84
17230;BME280;8731;50.364;8.958;2022-08-23T03:31:10;99970.72;;;20.75;51.49
17230;BME280;8731;50.364;8.958;2022-08-23T03:35:42;99963.63;;;20.71;51.50
17230;BME280;8731;50.364;8.958;2022-08-23T03:40:07;99968.59;;;20.66;51.79
17230;BME280;8731;50.364;8.958;2022-08-23T03:44:32;99973.81;;;20.50;53.67
17230;BME280;8731;50.364;8.958;2022-08-23T03:48:57;99973.22;;;20.56;51.64
17230;BME280;8731;50.364;8.958;2022-08-23T03:53:23;99973.81;;;20.50;52.22
17230;BME280;8731;50.364;8.958;2022-08-23T03:57:45;99980.31;;;20.42;53.08
17230;BME280;8731;50.364;8.958;2022-08-23T04:02:11;99984.88;;;20.31;52.51
17230;BME280;8731;50.364;8.958;2022-08-23T04:06:34;99974.47;;;20.30;53.31
17230;BME280;8731;50.364;8.958;2022-08-23T04:10:57;99978.44;;;20.23;52.86
17230;BME280;8731;50.364;8.958;2022-08-23T04:15:19;99998.00;;;20.18;53.65
17230;BME280;8731;50.364;8.958;2022-08-23T04:19:43;99994.53;;;20.17;53.47
17230;BME280;8731;50.364;8.958;2022-08-23T04:24:06;99990.72;;;20.11;53.71
17230;BME280;8731;50.364;8.958;2022-08-23T04:28:28;100000.03;;;20.07;53.05
17230;BME280;8731;50.364;8.958;2022-08-23T04:32:51;100004.06;;;20.02;53.63
17230;BME280;8731;50.364;8.958;2022-08-23T04:37:15;100017.81;;;20.01;54.67
17230;BME280;8731;50.364;8.958;2022-08-23T04:41:37;100011.66;;;19.99;53.91
17230;BME280;8731;50.364;8.958;2022-08-23T04:46:17;100010.56;;;19.94;54.57
17230;BME280;8731;50.364;8.958;2022-08-23T04:50:40;100013.94;;;19.93;53.69
17230;BME280;8731;50.364;8.958;2022-08-23T04:55:10;100019.75;;;19.89;54.69
17230;BME280;8731;50.364;8.958;2022-08-23T04:59:38;100022.97;;;19.69;56.23
17230;BME280;8731;50.364;8.958;2022-08-23T05:04:01;100029.34;;;19.75;56.61
17230;BME280;8731;50.364;8.958;2022-08-23T05:08:25;100030.16;;;19.74;56.99
17230;BME280;8731;50.364;8.958;2022-08-23T05:12:49;100038.31;;;19.66;56.39
17230;BME280;8731;50.364;8.958;2022-08-23T05:17:14;100042.03;;;19.71;56.56
17230;BME280;8731;50.364;8.958;2022-08-23T17:39:29;99942.59;;;31.33;32.26
17230;BME280;8731;50.364;8.958;2022-08-23T17:43:51;99954.00;;;31.32;31.37
17230;BME280;8731;50.364;8.958;2022-08-23T17:48:15;99950.44;;;31.23;31.44
17230;BME280;8731;50.364;8.958;2022-08-23T17:52:40;99959.81;;;30.85;33.15
17230;BME280;8731;50.364;8.958;2022-08-23T17:57:04;99962.44;;;30.84;33.72
17230;BME280;8731;50.364;8.958;2022-08-23T18:01:26;99963.75;;;30.36;35.58
17230;BME280;8731;50.364;8.958;2022-08-23T18:05:49;99967.00;;;30.08;36.09
17230;BME280;8731;50.364;8.958;2022-08-23T18:10:13;99961.72;;;30.08;35.33
17230;BME280;8731;50.364;8.958;2022-08-23T18:14:36;99965.28;;;30.14;35.34
17230;BME280;8731;50.364;8.958;2022-08-23T18:18:59;99978.34;;;30.05;35.17
17230;BME280;8731;50.364;8.958;2022-08-23T18:23:22;99977.94;;;29.75;35.45
17230;BME280;8731;50.364;8.958;2022-08-23T18:27:46;99992.63;;;29.59;35.87
17230;BME280;8731;50.364;8.958;2022-08-23T18:32:27;99991.41;;;29.36;36.13
17230;BME280;8731;50.364;8.958;2022-08-23T18:36:50;100009.13;;;28.93;36.20
17230;BME280;8731;50.364;8.958;2022-08-23T18:41:13;100007.41;;;28.95;36.05
17230;BME280;8731;50.364;8.958;2022-08-23T18:45:37;100010.69;;;28.85;36.27
17230;BME280;8731;50.364;8.958;2022-08-23T18:49:59;100009.47;;;28.63;35.96
17230;BME280;8731;50.364;8.958;2022-08-23T18:54:21;100012.56;;;28.40;36.02
17230;BME280;8731;50.364;8.958;2022-08-23T18:58:43;100013.50;;;28.00;36.70
17230;BME280;8731;50.364;8.958;2022-08-23T19:03:08;100024.34;;;27.76;37.93
17230;BME280;8731;50.364;8.958;2022-08-23T19:07:31;100026.91;;;27.73;38.15
17230;BME280;8731;50.364;8.958;2022-08-23T19:11:54;100036.13;;;27.59;37.81
17230;BME280;8731;50.364;8.958;2022-08-23T19:16:19;100039.94;;;27.34;38.28
17230;BME280;8731;50.364;8.958;2022-08-23T19:20:44;100045.56;;;27.15;38.21
17230;BME280;8731;50.364;8.958;2022-08-23T19:25:06;100055.47;;;26.93;38.72
17230;BME280;8731;50.364;8.958;2022-08-23T19:29:30;100049.00;;;26.78;38.59
17230;BME280;8731;50.364;8.958;2022-08-23T19:33:52;100057.13;;;26.55;39.24
17230;BME280;8731;50.364;8.958;2022-08-23T19:38:15;100059.06;;;26.33;39.12
17230;BME280;8731;50.364;8.958;2022-08-23T19:42:38;100067.72;;;26.30;39.49
17230;BME280;8731;50.364;8.958;2022-08-23T19:47:00;100069.38;;;25.98;39.94
17230;BME280;8731;50.364;8.958;2022-08-23T19:51:23;100073.75;;;25.99;39.99
17230;BME280;8731;50.364;8.958;2022-08-23T19:55:48;100077.09;;;25.38;41.19
17230;BME280;8731;50.364;8.958;2022-08-23T20:00:12;100085.72;;;25.08;41.45
17230;BME280;8731;50.364;8.958;2022-08-23T20:04:35;100086.28;;;25.27;40.82
17230;BME280;8731;50.364;8.958;2022-08-23T20:08:58;100093.16;;;25.25;41.07
17230;BME280;8731;50.364;8.958;2022-08-23T20:13:22;100089.06;;;25.06;41.23
17230;BME280;8731;50.364;8.958;2022-08-23T20:17:44;100100.88;;;24.96;41.85
17230;BME280;8731;50.364;8.958;2022-08-23T20:22:06;100104.91;;;24.87;41.72
17230;BME280;8731;50.364;8.958;2022-08-23T20:26:48;100109.53;;;24.70;42.76
17230;BME280;8731;50.364;8.958;2022-08-23T20:31:16;100101.09;;;24.77;42.04
17230;BME280;8731;50.364;8.958;2022-08-23T20:35:40;100110.09;;;24.61;42.12
17230;BME280;8731;50.364;8.958;2022-08-23T20:40:04;100114.63;;;24.67;42.12
17230;BME280;8731;50.364;8.958;2022-08-23T20:44:29;100124.50;;;24.52;42.67
17230;BME280;8731;50.364;8.958;2022-08-23T20:48:53;100119.91;;;24.44;42.97
17230;BME280;8731;50.364;8.958;2022-08-23T20:53:17;100118.19;;;24.45;42.82
17230;BME280;8731;50.364;8.958;2022-08-23T20:57:39;100127.78;;;24.46;42.47
17230;BME280;8731;50.364;8.958;2022-08-23T21:02:03;100133.66;;;24.40;43.15
17230;BME280;8731;50.364;8.958;2022-08-23T21:06:28;100134.94;;;24.29;42.79
17230;BME280;8731;50.364;8.958;2022-08-23T21:10:56;100139.63;;;24.15;43.57
17230;BME280;8731;50.364;8.958;2022-08-23T21:15:19;100130.47;;;24.03;44.19
17230;BME280;8731;50.364;8.958;2022-08-23T21:19:41;100141.19;;;24.12;43.32
17230;BME280;8731;50.364;8.958;2022-08-23T21:24:07;100142.84;;;24.10;43.10
17230;BME280;8731;50.364;8.958;2022-08-23T21:28:31;100148.56;;;24.00;43.89
17230;BME280;8731;50.364;8.958;2022-08-23T21:32:53;100155.19;;;24.14;42.86
17230;BME280;8731;50.364;8.958;2022-08-23T21:37:16;100152.09;;;24.02;43.31
17230;BME280;8731;50.364;8.958;2022-08-23T21:41:42;100149.31;;;23.97;44.10
17230;BME280;8731;50.364;8.958;2022-08-23T21:46:05;100153.25;;;23.87;44.39
17230;BME280;8731;50.364;8.958;2022-08-23T21:50:27;100154.47;;;23.96;42.94
17230;BME280;8731;50.364;8.958;2022-08-23T21:54:50;100147.13;;;23.85;44.14
17230;BME280;8731;50.364;8.958;2022-08-23T21:59:16;100147.19;;;23.87;44.43
17230;BME280;8731;50.364;8.958;2022-08-23T22:03:39;100146.00;;;24.01;43.68
17230;BME280;8731;50.364;8.958;2022-08-23T22:08:01;100148.38;;;23.95;43.49
17230;BME280;8731;50.364;8.958;2022-08-23T22:12:24;100153.25;;;23.87;42.65
17230;BME280;8731;50.364;8.958;2022-08-23T22:16:48;100150.72;;;23.89;44.05
17230;BME280;8731;50.364;8.958;2022-08-23T22:21:11;100150.66;;;23.87;44.42
17230;BME280;8731;50.364;8.958;2022-08-23T22:25:33;100162.00;;;23.89;44.50
17230;BME280;8731;50.364;8.958;2022-08-23T22:29:55;100161.53;;;23.77;45.69
17230;BME280;8731;50.364;8.958;2022-08-23T22:34:20;100156.63;;;23.85;45.31
17230;BME280;8731;50.364;8.958;2022-08-23T22:38:43;100156.63;;;23.85;45.52
17230;BME280;8731;50.364;8.958;2022-08-23T22:43:06;100153.56;;;23.73;46.59
17230;BME280;8731;50.364;8.958;2022-08-23T22:47:29;100157.06;;;23.73;47.09
17230;BME280;8731;50.364;8.958;2022-08-23T22:51:54;100161.44;;;23.74;47.00
17230;BME280;8731;50.364;8.958;2022-08-23T22:56:18;100154.16;;;23.88;45.36
17230;BME280;8731;50.364;8.958;2022-08-23T23:00:42;100156.34;;;23.77;45.99
17230;BME280;8731;50.364;8.958;2022-08-23T23:05:05;100164.22;;;23.58;48.17
17230;BME280;8731;50.364;8.958;2022-08-23T23:09:29;100160.88;;;23.61;47.96
17230;BME280;8731;50.364;8.958;2022-08-23T23:13:52;100163.34;;;23.57;47.50
17230;BME280;8731;50.364;8.958;2022-08-23T23:18:15;100171.66;;;23.70;45.87
17230;BME280;8731;50.364;8.958;2022-08-23T23:22:37;100168.66;;;23.61;47.80
17230;BME280;8731;50.364;8.958;2022-08-23T23:27:01;100170.38;;;23.60;48.14
17230;BME280;8731;50.364;8.958;2022-08-23T23:31:24;100169.66;;;23.64;47.52
17230;BME280;8731;50.364;8.958;2022-08-23T23:35:47;100177.34;;;23.61;46.30
17230;BME280;8731;50.364;8.958;2022-08-23T23:40:11;100180.06;;;23.64;46.67
17230;BME280;8731;50.364;8.958;2022-08-23T23:44:36;100181.47;;;23.56;47.50
17230;BME280;8731;50.364;8.958;2022-08-23T23:48:58;100182.16;;;23.52;47.54
17230;BME280;8731;50.364;8.958;2022-08-23T23:53:20;100181.44;;;23.35;49.62
17230;BME280;8731;50.364;8.958;2022-08-23T23:57:43;100180.19;;;23.46;47.96
